Time;durP1;ratioP1;P1;durP2;ratioP2;P2;SDS_P1;SDS_P2;PMS_P1;PMS_P2;Temp;Humidity;BMP_temperature;BMP_pressure;BME280_temperature;BME280_humidity;BME280_pressure;Samples;Min_cycle;Max_cycle;Signal;HPM_P1;HPM_P2
2020/12/27 00:00:03;;;;;;;1.98;1.88;;;6.10;99.90;;;;;;5045398;28;20182;-74
2020/12/27 00:02:29;;;;;;;2.03;1.83;;;6.00;99.90;;;;;;5046133;28;20124;-74
2020/12/27 00:04:54;;;;;;;2.60;2.33;;;6.00;99.90;;;;;;5053622;28;20032;-74
2020/12/27 00:07:20;;;;;;;2.70;2.17;;;6.00;99.90;;;;;;5045795;28;20033;-73
2020/12/27 00:09:45;;;;;;;2.50;2.30;;;6.00;99.90;;;;;;5045816;28;20033;-74
2020/12/27 00:12:12;;;;;;;2.42;2.00;;;5.90;99.90;;;;;;5051172;28;20381;-75
2020/12/27 00:14:38;;;;;;;1.85;1.73;;;5.90;99.90;;;;;;5042578;28;20024;-73
2020/12/27 00:17:12;;;;;;;3.17;2.10;;;5.90;99.90;;;;;;5049415;28;20036;-73
2020/12/27 00:19:39;;;;;;;2.20;2.00;;;6.00;99.90;;;;;;5054687;28;20104;-75
2020/12/27 00:22:05;;;;;;;3.63;2.58;;;6.00;99.90;;;;;;5051204;28;20073;-73
2020/12/27 00:24:32;;;;;;;2.65;2.45;;;6.10;99.90;;;;;;5041604;28;20427;-73
2020/12/27 00:26:58;;;;;;;2.67;2.47;;;5.90;99.90;;;;;;5050615;28;20390;-76
2020/12/27 00:29:23;;;;;;;2.72;2.08;;;6.00;99.90;;;;;;5040782;28;20032;-73
2020/12/27 00:31:54;;;;;;;2.42;2.22;;;6.00;99.90;;;;;;5041976;28;20037;-75
2020/12/27 00:34:20;;;;;;;3.25;2.50;;;6.00;99.90;;;;;;5042208;28;20086;-73
2020/12/27 00:36:46;;;;;;;2.53;2.33;;;6.00;99.90;;;;;;5042191;28;20501;-73
2020/12/27 00:39:12;;;;;;;2.78;2.00;;;6.00;99.90;;;;;;5046997;28;20036;-73
2020/12/27 00:41:38;;;;;;;3.05;2.63;;;5.90;99.90;;;;;;5049123;28;20385;-72
2020/12/27 00:44:04;;;;;;;3.15;2.55;;;5.90;99.90;;;;;;5042595;28;20029;-73
2020/12/27 00:46:30;;;;;;;3.60;2.88;;;5.90;99.90;;;;;;5046098;28;20040;-73
2020/12/27 00:48:56;;;;;;;2.60;2.40;;;5.90;99.90;;;;;;5045592;28;20437;-73
2020/12/27 00:51:26;;;;;;;3.40;2.97;;;5.90;99.90;;;;;;5043525;28;20033;-77
2020/12/27 00:53:52;;;;;;;3.63;2.78;;;5.90;99.90;;;;;;5039132;28;20116;-78
2020/12/27 00:56:18;;;;;;;3.85;2.90;;;5.90;99.90;;;;;;5041799;28;20032;-76
2020/12/27 00:58:43;;;;;;;3.70;3.15;;;6.00;99.90;;;;;;5048919;28;20480;-76
2020/12/27 01:01:10;;;;;;;4.40;3.90;;;5.90;99.90;;;;;;5051721;28;20108;-78
2020/12/27 01:03:36;;;;;;;5.25;3.30;;;5.90;99.90;;;;;;5045905;28;20029;-77
2020/12/27 01:06:02;;;;;;;3.72;3.03;;;5.90;99.90;;;;;;5049362;28;20071;-77
2020/12/27 01:08:28;;;;;;;5.13;2.83;;;5.90;99.90;;;;;;5042187;28;20040;-78
2020/12/27 01:10:54;;;;;;;4.15;3.75;;;5.90;99.90;;;;;;5043421;28;20108;-78
2020/12/27 01:13:20;;;;;;;4.32;3.92;;;5.90;99.90;;;;;;5047394;28;20037;-78
2020/12/27 01:15:47;;;;;;;5.80;3.67;;;6.00;99.90;;;;;;5046166;28;20024;-78
2020/12/27 01:18:13;;;;;;;4.38;3.50;;;6.00;99.90;;;;;;5045348;28;20025;-77
2020/12/27 01:20:39;;;;;;;3.95;3.55;;;6.00;99.90;;;;;;5044307;28;20516;-76
2020/12/27 01:23:05;;;;;;;5.95;3.90;;;6.00;99.90;;;;;;5050911;28;20021;-77
2020/12/27 01:25:31;;;;;;;4.63;4.05;;;6.00;99.90;;;;;;5044676;28;20061;-76
2020/12/27 01:27:56;;;;;;;6.57;4.53;;;6.00;99.90;;;;;;5044508;28;20017;-76
2020/12/27 01:30:22;;;;;;;6.75;4.65;;;5.90;99.90;;;;;;5042427;28;20059;-74
2020/12/27 01:32:48;;;;;;;4.55;4.15;;;6.00;99.90;;;;;;5041310;28;20029;-75
2020/12/27 01:35:13;;;;;;;5.07;4.07;;;5.90;99.90;;;;;;5044593;28;20394;-73
2020/12/27 01:37:40;;;;;;;4.20;3.67;;;5.90;99.90;;;;;;5047453;28;20060;-73
2020/12/27 01:40:06;;;;;;;4.90;4.28;;;5.90;99.90;;;;;;5050313;28;20025;-75
2020/12/27 01:42:31;;;;;;;6.80;4.05;;;5.90;99.90;;;;;;5045931;28;20035;-75
2020/12/27 01:44:57;;;;;;;5.15;3.88;;;6.00;99.90;;;;;;5052593;28;20103;-75
2020/12/27 01:47:24;;;;;;;5.07;3.90;;;5.90;99.90;;;;;;5050845;28;20041;-75
2020/12/27 01:49:53;;;;;;;5.65;3.22;;;5.90;99.90;;;;;;5052870;28;20061;-73
2020/12/27 01:52:19;;;;;;;4.07;3.40;;;6.00;99.90;;;;;;5050200;28;20033;-74
2020/12/27 01:54:45;;;;;;;4.20;3.70;;;5.90;99.90;;;;;;5046062;28;20028;-76
2020/12/27 01:57:19;;;;;;;5.32;3.83;;;6.00;99.90;;;;;;5052002;28;20021;-74
2020/12/27 01:59:45;;;;;;;3.55;3.25;;;5.90;99.90;;;;;;5054042;28;20029;-75
2020/12/27 02:02:13;;;;;;;4.65;3.80;;;5.80;99.90;;;;;;5042153;28;20101;-74
2020/12/27 02:04:40;;;;;;;4.80;3.58;;;5.70;99.90;;;;;;5052218;28;20412;-74
2020/12/27 02:07:07;;;;;;;7.25;3.78;;;5.90;99.90;;;;;;5058867;28;20450;-76
2020/12/27 02:09:38;;;;;;;4.82;3.22;;;5.90;99.90;;;;;;5050754;28;20025;-75
2020/12/27 02:12:09;;;;;;;6.88;3.75;;;5.90;99.90;;;;;;5053953;28;20025;-76
2020/12/27 02:14:36;;;;;;;4.88;3.00;;;5.80;99.90;;;;;;5049524;28;20025;-74
2020/12/27 02:17:06;;;;;;;3.65;3.08;;;5.80;99.90;;;;;;5047991;28;20058;-72
2020/12/27 02:19:32;;;;;;;6.05;3.83;;;5.90;99.90;;;;;;5057408;28;20546;-75
2020/12/27 02:22:00;;;;;;;4.15;3.58;;;5.90;99.90;;;;;;5047224;28;20108;-75
2020/12/27 02:24:26;;;;;;;3.40;3.03;;;5.80;99.90;;;;;;5051804;28;20044;-76
2020/12/27 02:27:00;;;;;;;6.10;3.00;;;5.90;99.90;;;;;;5054371;28;20040;-75
2020/12/27 02:29:27;;;;;;;5.88;2.88;;;5.90;99.90;;;;;;5041772;28;20064;-75
2020/12/27 02:31:54;;;;;;;4.10;2.75;;;5.90;99.90;;;;;;5044488;28;20111;-75
2020/12/27 02:34:21;;;;;;;3.25;2.63;;;5.90;99.90;;;;;;5050175;28;20159;-75
2020/12/27 02:36:47;;;;;;;4.30;3.33;;;5.90;99.90;;;;;;5057218;28;20025;-75
2020/12/27 02:39:15;;;;;;;3.70;3.15;;;5.90;99.90;;;;;;5051693;28;20025;-75
2020/12/27 02:41:41;;;;;;;3.25;2.95;;;5.90;99.90;;;;;;5036594;28;20119;-75
2020/12/27 02:44:08;;;;;;;5.47;3.42;;;5.90;99.90;;;;;;5043968;28;20048;-74
2020/12/27 02:46:34;;;;;;;3.80;3.30;;;5.80;99.90;;;;;;5046792;28;20036;-73
2020/12/27 02:48:59;;;;;;;5.10;3.40;;;5.80;99.90;;;;;;5042616;28;20029;-75
2020/12/27 02:51:26;;;;;;;3.33;2.90;;;5.80;99.90;;;;;;5047725;28;20493;-75
2020/12/27 02:53:53;;;;;;;3.75;3.30;;;5.80;99.90;;;;;;5041202;28;20045;-75
2020/12/27 02:56:26;;;;;;;5.90;3.40;;;5.90;99.90;;;;;;5045504;28;20036;-76
2020/12/27 02:58:53;;;;;;;4.88;3.55;;;5.90;99.90;;;;;;5051652;28;20029;-76
2020/12/27 03:01:19;;;;;;;4.68;3.33;;;5.80;99.90;;;;;;5051097;28;20029;-75
2020/12/27 03:03:45;;;;;;;3.55;3.13;;;5.90;99.90;;;;;;5053032;28;20037;-76
2020/12/27 03:06:11;;;;;;;5.70;3.50;;;5.90;99.90;;;;;;5047084;28;20040;-73
2020/12/27 03:08:38;;;;;;;4.22;3.53;;;5.90;99.90;;;;;;5048850;28;20016;-76
2020/12/27 03:11:04;;;;;;;3.08;2.72;;;5.90;99.90;;;;;;5055216;28;21706;-77
2020/12/27 03:13:32;;;;;;;3.45;2.80;;;5.90;99.90;;;;;;5050189;28;20103;-76
2020/12/27 03:16:03;;;;;;;4.50;2.53;;;5.90;99.90;;;;;;5043436;28;20021;-75
2020/12/27 03:18:29;;;;;;;4.13;3.10;;;5.90;99.90;;;;;;5044179;28;20036;-76
2020/12/27 03:20:55;;;;;;;3.42;2.90;;;5.90;99.90;;;;;;5041341;28;20026;-77
2020/12/27 03:23:21;;;;;;;4.03;2.85;;;5.90;99.90;;;;;;5042526;28;20034;-77
2020/12/27 03:25:47;;;;;;;3.45;2.88;;;5.90;99.90;;;;;;5049797;28;20024;-76
2020/12/27 03:28:13;;;;;;;3.22;2.88;;;5.80;99.90;;;;;;5050617;28;20504;-75
2020/12/27 03:30:38;;;;;;;3.33;2.90;;;5.90;99.90;;;;;;5063311;28;20051;-76
2020/12/27 03:33:04;;;;;;;2.67;2.45;;;5.90;99.90;;;;;;5042840;28;20021;-76
2020/12/27 03:35:30;;;;;;;3.03;2.58;;;5.90;99.90;;;;;;5040626;28;21523;-76
2020/12/27 03:37:56;;;;;;;5.35;2.90;;;5.90;99.90;;;;;;5047331;28;20071;-76
2020/12/27 03:40:21;;;;;;;2.70;2.08;;;5.90;99.90;;;;;;5046425;28;20021;-76
2020/12/27 03:42:47;;;;;;;2.53;2.00;;;6.00;99.90;;;;;;5046906;28;20501;-76
2020/12/27 03:45:13;;;;;;;3.22;2.25;;;6.00;99.90;;;;;;5048229;28;20048;-75
2020/12/27 03:47:39;;;;;;;3.70;1.95;;;5.90;99.90;;;;;;5053495;28;20037;-75
2020/12/27 03:50:05;;;;;;;3.33;2.22;;;5.90;99.90;;;;;;5051336;28;20025;-77
2020/12/27 03:52:31;;;;;;;5.18;2.00;;;6.00;99.90;;;;;;5040168;28;20036;-76
2020/12/27 03:54:56;;;;;;;3.67;2.13;;;6.10;99.90;;;;;;5051190;28;20036;-76
2020/12/27 03:57:22;;;;;;;2.83;2.17;;;6.10;99.90;;;;;;5039905;28;20039;-76
2020/12/27 03:59:47;;;;;;;4.13;1.73;;;6.10;99.90;;;;;;5045098;28;20037;-76
2020/12/27 04:02:13;;;;;;;3.60;2.10;;;5.90;99.90;;;;;;5049971;28;20036;-74
2020/12/27 04:04:39;;;;;;;2.83;1.83;;;6.00;99.90;;;;;;5050576;28;20025;-74
2020/12/27 04:07:04;;;;;;;3.88;1.75;;;6.00;99.90;;;;;;5048087;28;20570;-76
2020/12/27 04:09:31;;;;;;;2.20;2.00;;;6.10;99.90;;;;;;5045112;28;20116;-72
2020/12/27 04:11:57;;;;;;;1.70;1.48;;;6.10;99.90;;;;;;5043077;28;20068;-76
2020/12/27 04:14:22;;;;;;;1.55;1.40;;;6.10;99.90;;;;;;5048435;28;20501;-75
2020/12/27 04:16:48;;;;;;;2.10;1.52;;;6.10;99.90;;;;;;5050251;28;20021;-75
2020/12/27 04:19:13;;;;;;;2.63;1.60;;;6.20;99.90;;;;;;5049878;28;20025;-75
2020/12/27 04:21:45;;;;;;;1.60;1.50;;;6.20;99.90;;;;;;5043848;28;20060;-73
2020/12/27 04:24:11;;;;;;;1.75;1.65;;;6.10;99.90;;;;;;5038138;28;20032;-73
2020/12/27 04:26:37;;;;;;;1.60;1.45;;;6.20;99.90;;;;;;5041048;28;20037;-73
2020/12/27 04:29:02;;;;;;;3.28;1.42;;;6.20;99.90;;;;;;5044971;28;20097;-73
2020/12/27 04:31:28;;;;;;;1.77;1.52;;;6.20;99.90;;;;;;5042985;28;20029;-73
2020/12/27 04:33:54;;;;;;;1.50;1.40;;;6.20;99.90;;;;;;5042781;28;20362;-73
2020/12/27 04:36:20;;;;;;;2.67;1.35;;;6.30;99.90;;;;;;5045633;28;20033;-72
2020/12/27 04:38:46;;;;;;;2.40;2.10;;;6.20;99.90;;;;;;5045536;28;20052;-74
2020/12/27 04:41:13;;;;;;;2.72;1.30;;;6.30;99.90;;;;;;5046449;28;20033;-74
2020/12/27 04:43:42;;;;;;;1.25;0.98;;;6.30;99.90;;;;;;5054690;28;20033;-73
2020/12/27 04:46:11;;;;;;;1.95;1.63;;;6.30;99.90;;;;;;5041805;28;20128;-72
2020/12/27 04:48:39;;;;;;;2.40;1.33;;;6.30;99.90;;;;;;5045324;28;20033;-75
2020/12/27 04:51:07;;;;;;;1.00;0.90;;;6.40;99.90;;;;;;5044909;28;20053;-73
2020/12/27 04:53:36;;;;;;;1.40;0.80;;;6.30;99.90;;;;;;5043529;28;20029;-73
2020/12/27 04:56:05;;;;;;;1.08;0.82;;;6.30;99.90;;;;;;5046018;28;20084;-74
2020/12/27 04:58:31;;;;;;;0.65;0.65;;;6.30;99.90;;;;;;5045993;28;20103;-72
2020/12/27 05:00:57;;;;;;;1.63;0.70;;;6.30;99.90;;;;;;5046722;28;20066;-72
2020/12/27 05:03:23;;;;;;;0.98;0.82;;;6.30;99.90;;;;;;5048980;28;20029;-75
2020/12/27 05:05:49;;;;;;;0.73;0.60;;;6.40;99.90;;;;;;5042520;28;20017;-74
2020/12/27 05:08:15;;;;;;;0.52;0.52;;;6.40;99.90;;;;;;5047488;28;20103;-72
2020/12/27 05:10:42;;;;;;;1.67;0.40;;;6.50;99.90;;;;;;5036101;28;20097;-73
2020/12/27 05:13:11;;;;;;;0.57;0.50;;;6.50;99.90;;;;;;5043162;28;20036;-73
2020/12/27 05:15:38;;;;;;;0.60;0.43;;;6.50;99.90;;;;;;5043199;28;20461;-74
2020/12/27 05:18:05;;;;;;;0.63;0.40;;;6.50;99.90;;;;;;5040229;28;20095;-75
2020/12/27 05:20:38;;;;;;;0.43;0.40;;;6.50;99.90;;;;;;5047435;28;20024;-73
2020/12/27 05:23:05;;;;;;;0.57;0.30;;;6.50;99.90;;;;;;5045585;28;20120;-72
2020/12/27 05:25:33;;;;;;;0.43;0.43;;;6.50;99.90;;;;;;5051426;28;20185;-72
2020/12/27 05:28:05;;;;;;;0.32;0.30;;;6.50;99.90;;;;;;5051501;28;20021;-73
2020/12/27 05:30:31;;;;;;;;;;;6.40;99.90;;;;;;5050116;28;20033;-72
2020/12/27 05:32:57;;;;;;;0.85;0.30;;;6.50;99.90;;;;;;5047491;28;20274;-73
2020/12/27 05:35:23;;;;;;;0.52;0.40;;;6.40;99.90;;;;;;5047063;28;20033;-74
2020/12/27 05:37:49;;;;;;;1.60;0.40;;;6.40;99.90;;;;;;5051540;28;20082;-72
2020/12/27 05:40:16;;;;;;;0.93;0.35;;;6.40;99.90;;;;;;5044242;28;20025;-72
2020/12/27 05:42:46;;;;;;;3.35;0.40;;;6.30;99.90;;;;;;5049474;28;20760;-72
2020/12/27 05:45:17;;;;;;;0.50;0.45;;;6.40;99.90;;;;;;5053663;28;20378;-72
2020/12/27 05:47:44;;;;;;;0.52;0.52;;;6.40;99.90;;;;;;5051348;28;20037;-72
2020/12/27 05:50:18;;;;;;;0.40;0.30;;;6.30;99.90;;;;;;5051066;28;20029;-72
2020/12/27 05:52:48;;;;;;;1.95;0.60;;;6.30;99.90;;;;;;5050855;28;20025;-73
2020/12/27 05:55:20;;;;;;;0.22;0.22;;;6.30;99.90;;;;;;5044152;28;20022;-72
2020/12/27 05:57:54;;;;;;;2.63;0.50;;;6.30;99.90;;;;;;5052211;28;20024;-72
2020/12/27 06:00:24;;;;;;;1.45;0.25;;;6.40;99.90;;;;;;5051676;28;20561;-72
2020/12/27 06:03:01;;;;;;;0.47;0.30;;;6.40;99.90;;;;;;5049943;28;20025;-71
2020/12/27 06:05:58;;;;;;;1.38;0.30;;;6.40;99.90;;;;;;5045597;28;20604;-72
2020/12/27 06:08:27;;;;;;;0.43;0.30;;;6.40;99.90;;;;;;5041348;28;20045;-72
2020/12/27 06:11:07;;;;;;;0.13;0.10;;;6.40;99.90;;;;;;5051896;28;20075;-73
2020/12/27 06:13:57;;;;;;;0.60;0.28;;;6.40;99.90;;;;;;5047123;28;20454;-73
2020/12/27 06:16:35;;;;;;;0.20;0.20;;;6.40;99.90;;;;;;5046220;28;20045;-72
2020/12/27 06:19:25;;;;;;;0.30;0.30;;;6.40;99.90;;;;;;5043805;28;20060;-72
2020/12/27 06:22:09;;;;;;;0.38;0.22;;;6.40;99.90;;;;;;5042246;28;20497;-72
2020/12/27 06:24:38;;;;;;;13.30;10.93;;;6.40;99.90;;;;;;5037878;28;20492;-73
2020/12/27 06:27:06;;;;;;;1.65;0.50;;;6.40;99.90;;;;;;5044672;28;20037;-73
2020/12/27 06:29:35;;;;;;;0.60;0.40;;;6.50;99.90;;;;;;5042436;28;20033;-73
2020/12/27 06:32:06;;;;;;;0.93;0.45;;;6.50;99.90;;;;;;5051066;28;20040;-73
2020/12/27 06:34:33;;;;;;;0.22;0.20;;;6.50;99.90;;;;;;5036556;28;20018;-72
2020/12/27 06:36:59;;;;;;;0.52;0.30;;;6.50;99.90;;;;;;5050755;28;20025;-73
2020/12/27 06:39:29;;;;;;;0.40;0.20;;;6.50;99.90;;;;;;5044973;28;20068;-73
2020/12/27 06:42:11;;;;;;;3.08;2.85;;;6.50;99.90;;;;;;5044154;28;20108;-72
2020/12/27 06:44:47;;;;;;;0.40;0.20;;;6.50;99.90;;;;;;5041575;28;20033;-73
2020/12/27 06:47:14;;;;;;;2.05;0.50;;;6.50;99.90;;;;;;5042375;28;20390;-72
2020/12/27 06:49:41;;;;;;;0.40;0.40;;;6.50;99.90;;;;;;5042189;28;20029;-74
2020/12/27 06:52:24;;;;;;;1.50;0.25;;;6.40;99.90;;;;;;5041449;28;20079;-73
2020/12/27 06:54:54;;;;;;;1.38;1.27;;;6.30;99.90;;;;;;5043120;28;20379;-73
2020/12/27 06:58:13;;;;;;;0.63;0.22;;;6.30;99.90;;;;;;5051069;28;20484;-73
2020/12/27 07:00:39;;;;;;;0.35;0.30;;;6.30;99.90;;;;;;5006030;28;20052;-73
2020/12/27 07:03:16;;;;;;;0.35;0.35;;;6.30;99.90;;;;;;5001516;28;20038;-73
2020/12/27 07:05:42;;;;;;;3.72;3.40;;;6.30;99.90;;;;;;5036686;28;20033;-73
2020/12/27 07:08:10;;;;;;;0.65;0.32;;;6.20;99.90;;;;;;5042142;28;20038;-73
2020/12/27 07:10:46;;;;;;;0.28;0.17;;;6.20;99.90;;;;;;5047714;28;20068;-72
2020/12/27 07:13:16;;;;;;;1.85;1.00;;;6.20;99.90;;;;;;5047632;28;20033;-75
2020/12/27 07:15:53;;;;;;;0.35;0.20;;;6.20;99.90;;;;;;5043966;28;20449;-73
2020/12/27 07:18:25;;;;;;;1.85;0.50;;;6.20;99.90;;;;;;5043559;28;20041;-73
2020/12/27 07:20:58;;;;;;;1.65;0.40;;;6.20;99.90;;;;;;5047547;28;20017;-73
2020/12/27 07:23:31;;;;;;;0.47;0.40;;;6.20;99.90;;;;;;5041499;28;20083;-73
2020/12/27 07:26:02;;;;;;;1.65;0.30;;;6.20;99.90;;;;;;5049756;28;20033;-73
2020/12/27 07:28:29;;;;;;;0.40;0.40;;;6.20;99.90;;;;;;5050423;28;20036;-73
2020/12/27 07:31:04;;;;;;;2.15;1.95;;;6.20;99.90;;;;;;5044293;28;20013;-73
2020/12/27 07:33:32;;;;;;;2.03;1.92;;;6.10;99.90;;;;;;5043534;28;20060;-73
2020/12/27 07:36:09;;;;;;;1.95;0.98;;;6.20;99.90;;;;;;5046523;28;20111;-73
2020/12/27 07:39:00;;;;;;;1.45;0.77;;;6.20;99.90;;;;;;5043167;28;20017;-75
2020/12/27 07:41:26;;;;;;;0.82;0.47;;;6.20;99.90;;;;;;5039201;28;20035;-74
2020/12/27 07:43:52;;;;;;;1.17;0.50;;;6.20;99.90;;;;;;5047997;28;20027;-73
2020/12/27 07:46:19;;;;;;;0.60;0.50;;;6.20;99.90;;;;;;5044309;28;20084;-73
2020/12/27 07:48:46;;;;;;;0.30;0.30;;;6.10;99.90;;;;;;5047277;28;20025;-72
2020/12/27 07:51:17;;;;;;;1.15;1.05;;;6.20;99.90;;;;;;5050174;28;20059;-74
2020/12/27 07:54:02;;;;;;;0.30;0.30;;;6.20;99.90;;;;;;5043126;28;20025;-74
2020/12/27 07:56:29;;;;;;;0.50;0.50;;;6.30;99.90;;;;;;5039728;28;20052;-73
2020/12/27 07:58:57;;;;;;;0.40;0.35;;;6.20;99.90;;;;;;5044231;28;20036;-73
2020/12/27 08:01:29;;;;;;;3.53;1.20;;;6.20;99.90;;;;;;5043869;28;20032;-73
2020/12/27 08:04:01;;;;;;;0.47;0.47;;;6.20;99.90;;;;;;5046373;28;20028;-73
2020/12/27 08:06:29;;;;;;;2.72;0.50;;;6.20;99.90;;;;;;5041824;28;20033;-72
2020/12/27 08:09:04;;;;;;;1.08;0.60;;;6.30;99.90;;;;;;5038322;28;20029;-73
2020/12/27 08:11:31;;;;;;;0.85;0.50;;;6.30;99.90;;;;;;5049008;28;20032;-73
2020/12/27 08:13:59;;;;;;;1.77;0.65;;;6.30;99.90;;;;;;5049548;28;20100;-74
2020/12/27 08:16:26;;;;;;;1.50;1.08;;;6.30;99.90;;;;;;5048572;28;20025;-73
2020/12/27 08:19:01;;;;;;;1.27;1.17;;;6.30;99.90;;;;;;5041963;28;20054;-73
2020/12/27 08:21:27;;;;;;;0.63;0.60;;;6.30;99.90;;;;;;5038499;28;20037;-73
2020/12/27 08:24:00;;;;;;;0.82;0.82;;;6.20;99.90;;;;;;5045590;28;20075;-73
2020/12/27 08:26:27;;;;;;;4.70;4.30;;;6.20;99.90;;;;;;5044719;28;20056;-73
2020/12/27 08:28:52;;;;;;;1.20;0.50;;;6.30;99.90;;;;;;5041683;28;20020;-73
2020/12/27 08:31:26;;;;;;;0.20;0.20;;;6.20;99.90;;;;;;5045979;28;20538;-73
2020/12/27 08:34:06;;;;;;;1.25;0.45;;;6.20;99.90;;;;;;5040783;28;20021;-72
2020/12/27 08:36:32;;;;;;;0.93;0.45;;;6.20;99.90;;;;;;5045391;28;20095;-73
2020/12/27 08:39:17;;;;;;;0.40;0.40;;;6.20;99.90;;;;;;5046868;28;20063;-73
2020/12/27 08:41:51;;;;;;;0.50;0.50;;;6.20;99.90;;;;;;5048800;28;20108;-73
2020/12/27 08:44:29;;;;;;;0.63;0.40;;;6.30;99.90;;;;;;5038511;28;20072;-74
2020/12/27 08:47:01;;;;;;;0.43;0.40;;;6.20;99.90;;;;;;5043427;28;20037;-76
2020/12/27 08:49:54;;;;;;;0.63;0.63;;;6.30;99.90;;;;;;5045553;28;20022;-73
2020/12/27 08:52:22;;;;;;;0.70;0.68;;;6.30;99.90;;;;;;5041002;28;20037;-73
2020/12/27 08:55:03;;;;;;;1.13;0.60;;;6.30;99.90;;;;;;5043932;28;20021;-73
2020/12/27 08:57:29;;;;;;;2.05;0.70;;;6.30;99.90;;;;;;5054126;28;20433;-73
2020/12/27 09:00:06;;;;;;;0.95;0.60;;;6.30;99.90;;;;;;5043975;28;20021;-75
2020/12/27 09:02:32;;;;;;;3.25;1.20;;;6.30;99.90;;;;;;5049587;28;20032;-75
2020/12/27 09:05:13;;;;;;;17.38;13.55;;;6.40;99.90;;;;;;5048167;28;20029;-75
2020/12/27 09:07:44;;;;;;;0.70;0.60;;;6.40;99.90;;;;;;5043476;28;20035;-75
2020/12/27 09:10:17;;;;;;;3.38;0.60;;;6.40;99.90;;;;;;5049217;28;20495;-75
2020/12/27 09:12:58;;;;;;;1.38;0.50;;;6.30;99.90;;;;;;5046298;28;20504;-74
2020/12/27 09:15:26;;;;;;;1.20;0.80;;;6.30;99.90;;;;;;5047746;28;20156;-74
2020/12/27 09:18:08;;;;;;;1.02;0.75;;;6.40;99.90;;;;;;5046967;28;20047;-75
2020/12/27 09:20:41;;;;;;;1.90;1.60;;;6.40;99.90;;;;;;5048830;28;20022;-75
2020/12/27 09:23:18;;;;;;;1.20;0.65;;;6.40;99.90;;;;;;5044879;28;20500;-74
2020/12/27 09:25:45;;;;;;;1.45;1.15;;;6.40;99.90;;;;;;5045797;28;20540;-76
2020/12/27 09:28:15;;;;;;;4.70;0.88;;;6.50;99.90;;;;;;5044137;28;20032;-74
2020/12/27 09:30:43;;;;;;;1.90;0.50;;;6.40;99.90;;;;;;5046811;28;20028;-75
2020/12/27 09:33:08;;;;;;;0.80;0.52;;;6.40;99.90;;;;;;5045588;28;20029;-73
2020/12/27 09:35:34;;;;;;;0.70;0.50;;;6.40;99.90;;;;;;5041761;28;20025;-75
2020/12/27 09:38:00;;;;;;;0.57;0.43;;;6.40;99.90;;;;;;5045925;28;20037;-75
2020/12/27 09:40:26;;;;;;;1.25;0.73;;;6.40;99.90;;;;;;5041961;28;20103;-74
2020/12/27 09:43:03;;;;;;;3.08;2.80;;;6.40;99.90;;;;;;5037616;28;20025;-76
2020/12/27 09:45:30;;;;;;;0.82;0.60;;;6.40;99.90;;;;;;5040320;28;20026;-76
2020/12/27 09:47:58;;;;;;;2.35;0.68;;;6.40;99.90;;;;;;5047686;28;20037;-75
2020/12/27 09:50:27;;;;;;;0.40;0.40;;;6.40;99.90;;;;;;5038441;28;20421;-76
2020/12/27 09:52:53;;;;;;;2.72;0.70;;;6.40;99.90;;;;;;5041198;28;20440;-76
2020/12/27 09:55:19;;;;;;;1.67;0.80;;;6.50;99.90;;;;;;5042150;28;20033;-76
2020/12/27 09:57:45;;;;;;;1.48;0.60;;;6.40;99.90;;;;;;5051907;28;20064;-78
2020/12/27 10:00:10;;;;;;;2.28;0.60;;;6.40;99.90;;;;;;5042047;28;20458;-78
2020/12/27 10:02:36;;;;;;;1.85;0.60;;;6.50;99.90;;;;;;5042043;28;20121;-75
2020/12/27 10:05:02;;;;;;;0.63;0.50;;;6.40;99.90;;;;;;5050708;28;20055;-76
2020/12/27 10:07:28;;;;;;;1.63;0.77;;;6.40;99.90;;;;;;5042264;28;20040;-78
2020/12/27 10:09:53;;;;;;;0.95;0.60;;;6.40;99.90;;;;;;5048090;28;20029;-75
2020/12/27 10:12:20;;;;;;;1.95;0.60;;;6.50;99.90;;;;;;5043116;28;20075;-75
2020/12/27 10:14:45;;;;;;;0.55;0.45;;;6.40;99.90;;;;;;5044124;28;20087;-76
2020/12/27 10:17:11;;;;;;;1.35;0.40;;;6.40;99.90;;;;;;5045428;28;20024;-78
2020/12/27 10:19:38;;;;;;;0.70;0.60;;;6.40;99.90;;;;;;5046993;28;20036;-72
2020/12/27 10:22:04;;;;;;;0.70;0.70;;;6.40;99.90;;;;;;5039129;28;20066;-73
2020/12/27 10:24:32;;;;;;;0.50;0.50;;;6.50;99.90;;;;;;5041899;28;20091;-73
2020/12/27 10:27:02;;;;;;;2.55;0.60;;;6.50;99.90;;;;;;5042577;28;20034;-73
2020/12/27 10:29:28;;;;;;;0.70;0.50;;;6.40;99.90;;;;;;5044667;28;20029;-72
2020/12/27 10:31:59;;;;;;;2.05;0.60;;;6.50;99.90;;;;;;5042594;28;20051;-72
2020/12/27 10:34:25;;;;;;;1.13;0.80;;;6.50;99.90;;;;;;5044209;28;20029;-73
2020/12/27 10:36:53;;;;;;;0.80;0.68;;;6.50;99.90;;;;;;5042752;28;20107;-73
2020/12/27 10:39:19;;;;;;;0.82;0.50;;;6.50;99.90;;;;;;5044723;28;20029;-72
2020/12/27 10:41:47;;;;;;;1.60;0.25;;;6.40;99.90;;;;;;5042060;28;20550;-73
2020/12/27 10:44:13;;;;;;;5.07;4.65;;;6.30;99.90;;;;;;5049647;28;20024;-73
2020/12/27 10:46:39;;;;;;;1.08;0.98;;;6.40;99.90;;;;;;5037981;28;20044;-73
2020/12/27 10:49:05;;;;;;;9.63;7.45;;;6.50;99.90;;;;;;5046707;28;20021;-73
2020/12/27 10:51:38;;;;;;;0.32;0.32;;;6.50;99.90;;;;;;5044695;28;20382;-73
2020/12/27 10:54:04;;;;;;;;;;;6.50;99.90;;;;;;5042290;28;20021;-73
2020/12/27 10:56:30;;;;;;;1.63;0.40;;;6.50;99.90;;;;;;5045800;28;19944;-72
2020/12/27 10:58:55;;;;;;;0.50;0.50;;;6.50;99.90;;;;;;5048162;28;20056;-73
2020/12/27 11:01:21;;;;;;;0.40;0.30;;;6.50;99.90;;;;;;5042132;28;20104;-73
2020/12/27 11:03:47;;;;;;;2.55;1.55;;;6.50;99.90;;;;;;5041232;28;20024;-72
2020/12/27 11:06:13;;;;;;;0.50;0.32;;;6.50;99.90;;;;;;5039293;28;20040;-73
2020/12/27 11:08:38;;;;;;;2.63;0.40;;;6.50;99.90;;;;;;5043065;28;20029;-74
2020/12/27 11:11:04;;;;;;;1.60;0.30;;;6.50;99.90;;;;;;5046593;28;20500;-73
2020/12/27 11:13:29;;;;;;;0.57;0.35;;;6.60;99.90;;;;;;5042136;28;20037;-73
2020/12/27 11:15:55;;;;;;;1.38;0.52;;;6.60;99.90;;;;;;5038730;28;20024;-73
2020/12/27 11:18:21;;;;;;;0.30;0.30;;;6.60;99.90;;;;;;5041212;28;20032;-73
2020/12/27 11:20:46;;;;;;;0.70;0.63;;;6.60;99.90;;;;;;5041942;28;20029;-73
2020/12/27 11:23:12;;;;;;;0.95;0.30;;;6.60;99.90;;;;;;5048319;28;20087;-73
2020/12/27 11:25:38;;;;;;;0.50;0.30;;;6.60;99.90;;;;;;5048077;28;20029;-74
2020/12/27 11:28:03;;;;;;;0.45;0.45;;;6.60;99.90;;;;;;5048296;28;20033;-74
2020/12/27 11:30:29;;;;;;;0.63;0.60;;;6.60;99.90;;;;;;5049206;28;20040;-74
2020/12/27 11:32:55;;;;;;;1.55;0.30;;;6.70;99.90;;;;;;5039810;28;20029;-74
2020/12/27 11:35:20;;;;;;;0.55;0.40;;;6.60;99.90;;;;;;5032322;28;20782;-75
2020/12/27 11:37:46;;;;;;;0.30;0.30;;;6.70;99.90;;;;;;5051106;28;20478;-75
2020/12/27 11:40:12;;;;;;;0.20;0.20;;;6.60;99.90;;;;;;5047852;28;20029;-73
2020/12/27 11:42:38;;;;;;;0.60;0.60;;;6.60;99.90;;;;;;5050769;28;20029;-74
2020/12/27 11:45:05;;;;;;;0.77;0.40;;;6.70;99.90;;;;;;5045727;28;20021;-73
2020/12/27 11:47:31;;;;;;;1.70;1.60;;;6.70;99.90;;;;;;5047755;28;20116;-74
2020/12/27 11:49:57;;;;;;;2.05;1.10;;;6.70;99.90;;;;;;5047415;28;20104;-74
2020/12/27 11:52:24;;;;;;;0.50;0.30;;;6.80;99.90;;;;;;5044099;28;20427;-74
2020/12/27 11:54:51;;;;;;;1.75;0.50;;;6.80;99.90;;;;;;5041179;28;20115;-74
2020/12/27 11:57:17;;;;;;;0.50;0.45;;;6.80;99.90;;;;;;5044053;28;20032;-74
2020/12/27 11:59:43;;;;;;;0.88;0.20;;;6.70;99.90;;;;;;5046122;28;20025;-79
2020/12/27 12:02:08;;;;;;;0.38;0.38;;;6.70;99.90;;;;;;5044459;28;20385;-75
2020/12/27 12:04:34;;;;;;;0.88;0.52;;;6.70;99.90;;;;;;5044964;28;20381;-74
2020/12/27 12:07:00;;;;;;;0.40;0.30;;;6.80;99.90;;;;;;5043777;28;20116;-72
2020/12/27 12:09:25;;;;;;;0.40;0.40;;;6.80;99.90;;;;;;5046891;28;20025;-74
2020/12/27 12:11:51;;;;;;;1.63;1.05;;;6.80;99.90;;;;;;5045655;28;20025;-74
2020/12/27 12:14:16;;;;;;;0.70;0.70;;;6.90;99.90;;;;;;5042227;28;20114;-73
2020/12/27 12:16:42;;;;;;;0.50;0.47;;;6.90;99.90;;;;;;5040831;28;20029;-74
2020/12/27 12:19:08;;;;;;;1.60;1.50;;;6.90;99.90;;;;;;5043339;28;20022;-73
2020/12/27 12:21:33;;;;;;;1.23;0.30;;;6.90;99.90;;;;;;5039093;28;20024;-73
2020/12/27 12:23:59;;;;;;;2.33;0.50;;;6.90;99.90;;;;;;5046520;28;20025;-74
2020/12/27 12:26:29;;;;;;;1.77;0.40;;;7.00;99.90;;;;;;5045106;28;20470;-75
2020/12/27 12:28:56;;;;;;;0.20;0.20;;;6.90;99.90;;;;;;5050361;28;20025;-74
2020/12/27 12:31:23;;;;;;;0.40;0.17;;;7.00;99.90;;;;;;5044883;28;20520;-74
2020/12/27 12:33:49;;;;;;;0.38;0.10;;;7.00;99.90;;;;;;5042182;28;20032;-74
2020/12/27 12:36:16;;;;;;;1.35;1.25;;;7.00;99.90;;;;;;5034465;28;20036;-73
2020/12/27 12:38:42;;;;;;;1.83;1.15;;;7.00;99.90;;;;;;5046133;28;20192;-74
2020/12/27 12:41:11;;;;;;;1.30;1.20;;;7.00;99.90;;;;;;5042364;28;20121;-74
2020/12/27 12:43:39;;;;;;;0.98;0.20;;;7.10;99.90;;;;;;5044450;28;20021;-73
2020/12/27 12:46:07;;;;;;;0.30;0.20;;;7.00;99.90;;;;;;5046363;28;20470;-73
2020/12/27 12:48:32;;;;;;;0.43;0.30;;;7.10;99.90;;;;;;5046258;28;20466;-74
2020/12/27 12:50:59;;;;;;;0.43;0.20;;;7.10;99.90;;;;;;5048750;28;20104;-75
2020/12/27 12:53:24;;;;;;;0.68;0.68;;;7.20;99.90;;;;;;5042719;28;20045;-74
2020/12/27 12:55:50;;;;;;;2.22;0.20;;;7.20;99.90;;;;;;5041340;28;20072;-75
2020/12/27 12:58:16;;;;;;;0.93;0.50;;;7.20;99.90;;;;;;5048920;28;20029;-74
2020/12/27 13:00:41;;;;;;;0.40;0.40;;;7.30;99.90;;;;;;5044847;28;20031;-74
2020/12/27 13:03:07;;;;;;;0.63;0.25;;;7.20;99.90;;;;;;5037581;28;20112;-75